sensor_id;sensor_type;location;lat;lon;timestamp;P1;durP1;ratioP1;P2;durP2;ratioP2
9166;SDS011;4618;48.818;9.088;2024-03-23T00:52:42;8.23;;;3.70;;
9166;SDS011;4618;48.818;9.088;2024-03-23T00:55:11;5.13;;;3.70;;
9166;SDS011;4618;48.818;9.088;2024-03-23T00:57:37;5.80;;;3.13;;
9166;SDS011;4618;48.818;9.088;2024-03-23T01:00:03;5.90;;;3.20;;
9166;SDS011;4618;48.818;9.088;2024-03-23T01:02:31;3.50;;;3.20;;
9166;SDS011;4618;48.818;9.088;2024-03-23T01:04:57;4.47;;;3.50;;
9166;SDS011;4618;48.818;9.088;2024-03-23T01:07:22;3.30;;;2.97;;
9166;SDS011;4618;48.818;9.088;2024-03-23T01:09:48;3.73;;;2.53;;
9166;SDS011;4618;48.818;9.088;2024-03-23T01:12:14;3.47;;;2.27;;
9166;SDS011;4618;48.818;9.088;2024-03-23T01:14:39;2.43;;;2.23;;
9166;SDS011;4618;48.818;9.088;2024-03-23T01:17:05;3.80;;;2.17;;
9166;SDS011;4618;48.818;9.088;2024-03-23T01:19:31;6.83;;;2.40;;
9166;SDS011;4618;48.818;9.088;2024-03-23T01:21:56;2.17;;;1.97;;
9166;SDS011;4618;48.818;9.088;2024-03-23T01:24:22;3.30;;;1.90;;
9166;SDS011;4618;48.818;9.088;2024-03-23T01:26:48;2.67;;;2.03;;
9166;SDS011;4618;48.818;9.088;2024-03-23T01:29:14;3.20;;;1.90;;
9166;SDS011;4618;48.818;9.088;2024-03-23T01:31:39;3.30;;;2.03;;
9166;SDS011;4618;48.818;9.088;2024-03-23T01:34:05;2.63;;;2.00;;
9166;SDS011;4618;48.818;9.088;2024-03-23T01:36:31;2.30;;;2.03;;
9166;SDS011;4618;48.818;9.088;2024-03-23T01:38:56;4.60;;;2.00;;
9166;SDS011;4618;48.818;9.088;2024-03-23T01:41:23;3.57;;;2.07;;
9166;SDS011;4618;48.818;9.088;2024-03-23T01:43:50;2.20;;;2.00;;
9166;SDS011;4618;48.818;9.088;2024-03-23T01:46:16;2.37;;;1.87;;
9166;SDS011;4618;48.818;9.088;2024-03-23T01:48:42;1.87;;;1.70;;
9166;SDS011;4618;48.818;9.088;2024-03-23T01:51:10;1.80;;;1.70;;
9166;SDS011;4618;48.818;9.088;2024-03-23T01:53:37;2.10;;;1.77;;
9166;SDS011;4618;48.818;9.088;2024-03-23T01:56:03;2.20;;;2.00;;
9166;SDS011;4618;48.818;9.088;2024-03-23T01:58:29;4.73;;;1.90;;
9166;SDS011;4618;48.818;9.088;2024-03-23T02:00:59;1.73;;;1.40;;
9166;SDS011;4618;48.818;9.088;2024-03-23T02:03:25;2.37;;;1.90;;
9166;SDS011;4618;48.818;9.088;2024-03-23T02:05:52;1.67;;;1.57;;
9166;SDS011;4618;48.818;9.088;2024-03-23T02:08:20;3.27;;;1.93;;
9166;SDS011;4618;48.818;9.088;2024-03-23T02:11:20;3.33;;;1.87;;
9166;SDS011;4618;48.818;9.088;2024-03-23T02:13:39;3.90;;;2.50;;
9166;SDS011;4618;48.818;9.088;2024-03-23T02:16:05;2.37;;;1.90;;
9166;SDS011;4618;48.818;9.088;2024-03-23T02:18:32;2.67;;;1.90;;
9166;SDS011;4618;48.818;9.088;2024-03-23T02:20:58;2.00;;;1.80;;
9166;SDS011;4618;48.818;9.088;2024-03-23T02:23:24;1.83;;;1.70;;
9166;SDS011;4618;48.818;9.088;2024-03-23T02:25:49;2.33;;;1.80;;
9166;SDS011;4618;48.818;9.088;2024-03-23T02:28:15;3.30;;;1.80;;
9166;SDS011;4618;48.818;9.088;2024-03-23T02:30:42;2.53;;;1.87;;
9166;SDS011;4618;48.818;9.088;2024-03-23T02:33:08;1.93;;;1.73;;
9166;SDS011;4618;48.818;9.088;2024-03-23T02:35:34;2.23;;;1.77;;
9166;SDS011;4618;48.818;9.088;2024-03-23T02:38:00;4.83;;;2.00;;
9166;SDS011;4618;48.818;9.088;2024-03-23T02:40:26;2.17;;;1.77;;
9166;SDS011;4618;48.818;9.088;2024-03-23T02:42:52;1.70;;;1.60;;
9166;SDS011;4618;48.818;9.088;2024-03-23T02:45:18;3.03;;;2.17;;
9166;SDS011;4618;48.818;9.088;2024-03-23T02:47:44;2.23;;;2.03;;
9166;SDS011;4618;48.818;9.088;2024-03-23T02:50:10;2.40;;;2.00;;
9166;SDS011;4618;48.818;9.088;2024-03-23T02:52:36;3.70;;;2.10;;
9166;SDS011;4618;48.818;9.088;2024-03-23T02:55:02;4.23;;;2.13;;
9166;SDS011;4618;48.818;9.088;2024-03-23T02:57:29;2.50;;;1.90;;
9166;SDS011;4618;48.818;9.088;2024-03-23T02:59:55;4.03;;;2.13;;
9166;SDS011;4618;48.818;9.088;2024-03-23T03:02:21;2.23;;;2.00;;
9166;SDS011;4618;48.818;9.088;2024-03-23T03:04:47;2.90;;;2.30;;
9166;SDS011;4618;48.818;9.088;2024-03-23T03:07:13;4.27;;;2.27;;
9166;SDS011;4618;48.818;9.088;2024-03-23T03:09:39;2.20;;;2.00;;
9166;SDS011;4618;48.818;9.088;2024-03-23T03:12:07;4.03;;;2.03;;
9166;SDS011;4618;48.818;9.088;2024-03-23T03:14:33;2.43;;;2.10;;
9166;SDS011;4618;48.818;9.088;2024-03-23T03:16:59;3.93;;;2.10;;
9166;SDS011;4618;48.818;9.088;2024-03-23T03:19:25;2.87;;;2.17;;
9166;SDS011;4618;48.818;9.088;2024-03-23T03:21:51;2.07;;;1.97;;
9166;SDS011;4618;48.818;9.088;2024-03-23T03:24:17;1.97;;;1.80;;
9166;SDS011;4618;48.818;9.088;2024-03-23T03:26:43;2.87;;;2.00;;
9166;SDS011;4618;48.818;9.088;2024-03-23T03:29:09;3.47;;;2.10;;
9166;SDS011;4618;48.818;9.088;2024-03-23T03:31:35;2.33;;;2.10;;
9166;SDS011;4618;48.818;9.088;2024-03-23T03:34:01;4.63;;;2.00;;
9166;SDS011;4618;48.818;9.088;2024-03-23T03:36:27;2.50;;;2.30;;
9166;SDS011;4618;48.818;9.088;2024-03-23T03:38:53;3.33;;;2.20;;
9166;SDS011;4618;48.818;9.088;2024-03-23T03:41:19;4.97;;;1.93;;
9166;SDS011;4618;48.818;9.088;2024-03-23T03:43:45;3.50;;;2.20;;
9166;SDS011;4618;48.818;9.088;2024-03-23T03:46:10;2.40;;;2.07;;
9166;SDS011;4618;48.818;9.088;2024-03-23T03:48:36;3.40;;;2.00;;
9166;SDS011;4618;48.818;9.088;2024-03-23T03:51:03;3.67;;;2.10;;
9166;SDS011;4618;48.818;9.088;2024-03-23T03:53:29;2.70;;;2.20;;
9166;SDS011;4618;48.818;9.088;2024-03-23T03:55:55;3.90;;;2.13;;
9166;SDS011;4618;48.818;9.088;2024-03-23T03:58:21;2.90;;;2.50;;
9166;SDS011;4618;48.818;9.088;2024-03-23T04:00:47;2.83;;;2.30;;
9166;SDS011;4618;48.818;9.088;2024-03-23T04:03:12;4.70;;;2.53;;
9166;SDS011;4618;48.818;9.088;2024-03-23T04:05:38;3.10;;;2.17;;
9166;SDS011;4618;48.818;9.088;2024-03-23T04:08:04;2.40;;;2.00;;
9166;SDS011;4618;48.818;9.088;2024-03-23T04:10:31;4.20;;;2.13;;
9166;SDS011;4618;48.818;9.088;2024-03-23T04:12:56;3.27;;;2.00;;
9166;SDS011;4618;48.818;9.088;2024-03-23T04:15:22;2.10;;;1.90;;
9166;SDS011;4618;48.818;9.088;2024-03-23T04:17:48;2.63;;;1.70;;
9166;SDS011;4618;48.818;9.088;2024-03-23T04:20:14;2.77;;;2.00;;
9166;SDS011;4618;48.818;9.088;2024-03-23T04:22:42;2.90;;;2.17;;
9166;SDS011;4618;48.818;9.088;2024-03-23T04:25:08;3.47;;;2.37;;
9166;SDS011;4618;48.818;9.088;2024-03-23T04:27:38;4.60;;;2.60;;
9166;SDS011;4618;48.818;9.088;2024-03-23T04:30:05;6.10;;;3.17;;
9166;SDS011;4618;48.818;9.088;2024-03-23T04:32:36;4.23;;;3.07;;
9166;SDS011;4618;48.818;9.088;2024-03-23T04:35:02;5.00;;;3.13;;
9166;SDS011;4618;48.818;9.088;2024-03-23T04:37:35;7.93;;;3.77;;
9166;SDS011;4618;48.818;9.088;2024-03-23T04:42:28;6.73;;;4.80;;
9166;SDS011;4618;48.818;9.088;2024-03-23T04:44:55;8.87;;;5.50;;
9166;SDS011;4618;48.818;9.088;2024-03-23T04:47:21;7.50;;;5.87;;
9166;SDS011;4618;48.818;9.088;2024-03-23T04:49:46;8.47;;;6.33;;
9166;SDS011;4618;48.818;9.088;2024-03-23T04:52:12;10.73;;;7.80;;
9166;SDS011;4618;48.818;9.088;2024-03-23T04:54:38;10.50;;;9.40;;
9166;SDS011;4618;48.818;9.088;2024-03-23T04:57:07;14.17;;;12.07;;
9166;SDS011;4618;48.818;9.088;2024-03-23T04:59:32;18.60;;;13.20;;
9166;SDS011;4618;48.818;9.088;2024-03-23T05:01:58;17.83;;;15.27;;
9166;SDS011;4618;48.818;9.088;2024-03-23T05:04:25;17.53;;;14.83;;
9166;SDS011;4618;48.818;9.088;2024-03-23T05:06:51;19.17;;;14.90;;
9166;SDS011;4618;48.818;9.088;2024-03-23T05:09:16;19.00;;;15.50;;
9166;SDS011;4618;48.818;9.088;2024-03-23T05:11:42;18.27;;;14.50;;
9166;SDS011;4618;48.818;9.088;2024-03-23T05:14:08;16.07;;;12.90;;
9166;SDS011;4618;48.818;9.088;2024-03-23T05:16:34;15.47;;;12.47;;
9166;SDS011;4618;48.818;9.088;2024-03-23T05:18:59;17.47;;;14.03;;
9166;SDS011;4618;48.818;9.088;2024-03-23T05:21:26;16.07;;;14.37;;
9166;SDS011;4618;48.818;9.088;2024-03-23T05:23:53;15.20;;;12.10;;
9166;SDS011;4618;48.818;9.088;2024-03-23T05:26:19;17.27;;;13.40;;
9166;SDS011;4618;48.818;9.088;2024-03-23T05:28:45;18.00;;;14.67;;
9166;SDS011;4618;48.818;9.088;2024-03-23T05:31:11;16.93;;;12.97;;
9166;SDS011;4618;48.818;9.088;2024-03-23T05:33:37;16.87;;;14.37;;
9166;SDS011;4618;48.818;9.088;2024-03-23T05:36:06;17.50;;;14.77;;
9166;SDS011;4618;48.818;9.088;2024-03-23T05:38:36;14.37;;;12.80;;
9166;SDS011;4618;48.818;9.088;2024-03-23T05:41:02;13.33;;;10.40;;
9166;SDS011;4618;48.818;9.088;2024-03-23T05:43:28;13.40;;;12.00;;
9166;SDS011;4618;48.818;9.088;2024-03-23T05:45:54;13.50;;;11.90;;
9166;SDS011;4618;48.818;9.088;2024-03-23T05:48:20;13.20;;;10.50;;
9166;SDS011;4618;48.818;9.088;2024-03-23T05:50:47;10.23;;;8.30;;
9166;SDS011;4618;48.818;9.088;2024-03-23T05:53:14;8.17;;;6.10;;
9166;SDS011;4618;48.818;9.088;2024-03-23T05:55:40;5.63;;;5.07;;
9166;SDS011;4618;48.818;9.088;2024-03-23T05:58:06;5.27;;;4.77;;
9166;SDS011;4618;48.818;9.088;2024-03-23T06:00:32;5.10;;;4.47;;
9166;SDS011;4618;48.818;9.088;2024-03-23T06:02:58;4.73;;;4.33;;
9166;SDS011;4618;48.818;9.088;2024-03-23T06:05:24;5.50;;;3.90;;
9166;SDS011;4618;48.818;9.088;2024-03-23T06:07:50;3.77;;;3.47;;
9166;SDS011;4618;48.818;9.088;2024-03-23T06:10:16;6.43;;;2.97;;
9166;SDS011;4618;48.818;9.088;2024-03-23T06:12:42;3.90;;;3.13;;
9166;SDS011;4618;48.818;9.088;2024-03-23T06:15:08;3.60;;;2.87;;
9166;SDS011;4618;48.818;9.088;2024-03-23T06:17:36;4.10;;;3.20;;
9166;SDS011;4618;48.818;9.088;2024-03-23T06:20:02;2.87;;;2.53;;
9166;SDS011;4618;48.818;9.088;2024-03-23T06:22:28;2.60;;;2.40;;
9166;SDS011;4618;48.818;9.088;2024-03-23T06:24:54;3.10;;;2.17;;
9166;SDS011;4618;48.818;9.088;2024-03-23T06:27:20;3.97;;;1.97;;
9166;SDS011;4618;48.818;9.088;2024-03-23T06:29:47;2.20;;;1.80;;
9166;SDS011;4618;48.818;9.088;2024-03-23T06:32:13;2.40;;;2.20;;
9166;SDS011;4618;48.818;9.088;2024-03-23T06:34:41;2.37;;;1.33;;
9166;SDS011;4618;48.818;9.088;2024-03-23T06:37:07;1.13;;;1.10;;
9166;SDS011;4618;48.818;9.088;2024-03-23T06:39:35;1.40;;;1.20;;
9166;SDS011;4618;48.818;9.088;2024-03-23T06:42:01;1.47;;;0.90;;
9166;SDS011;4618;48.818;9.088;2024-03-23T06:44:28;0.80;;;0.80;;
9166;SDS011;4618;48.818;9.088;2024-03-23T06:46:54;0.80;;;0.80;;
9166;SDS011;4618;48.818;9.088;2024-03-23T06:49:20;0.80;;;0.80;;
9166;SDS011;4618;48.818;9.088;2024-03-23T06:51:46;0.97;;;0.90;;
9166;SDS011;4618;48.818;9.088;2024-03-23T06:54:12;0.70;;;0.60;;
9166;SDS011;4618;48.818;9.088;2024-03-23T06:56:38;0.77;;;0.40;;
9166;SDS011;4618;48.818;9.088;2024-03-23T06:59:07;0.50;;;0.50;;
9166;SDS011;4618;48.818;9.088;2024-03-23T07:01:33;0.30;;;0.30;;
9166;SDS011;4618;48.818;9.088;2024-03-23T07:04:00;0.37;;;0.37;;
9166;SDS011;4618;48.818;9.088;2024-03-23T07:06:26;2.63;;;0.50;;
9166;SDS011;4618;48.818;9.088;2024-03-23T07:08:52;0.30;;;0.30;;
9166;SDS011;4618;48.818;9.088;2024-03-23T07:11:22;0.40;;;0.40;;
9166;SDS011;4618;48.818;9.088;2024-03-23T07:13:52;0.30;;;0.30;;
9166;SDS011;4618;48.818;9.088;2024-03-23T07:16:21;0.40;;;0.40;;
9166;SDS011;4618;48.818;9.088;2024-03-23T07:18:49;0.30;;;0.30;;
9166;SDS011;4618;48.818;9.088;2024-03-23T07:21:15;0.30;;;0.30;;
9166;SDS011;4618;48.818;9.088;2024-03-23T07:23:44;0.30;;;0.30;;
9166;SDS011;4618;48.818;9.088;2024-03-23T07:26:10;0.23;;;0.23;;
9166;SDS011;4618;48.818;9.088;2024-03-23T07:28:36;0.40;;;0.40;;
9166;SDS011;4618;48.818;9.088;2024-03-23T07:31:07;0.30;;;0.30;;
9166;SDS011;4618;48.818;9.088;2024-03-23T07:33:34;0.30;;;0.30;;
9166;SDS011;4618;48.818;9.088;2024-03-23T07:36:01;0.40;;;0.40;;
9166;SDS011;4618;48.818;9.088;2024-03-23T07:38:27;0.77;;;0.40;;
9166;SDS011;4618;48.818;9.088;2024-03-23T07:41:07;0.50;;;0.50;;
9166;SDS011;4618;48.818;9.088;2024-03-23T07:43:34;0.30;;;0.30;;
9166;SDS011;4618;48.818;9.088;2024-03-23T07:46:00;0.30;;;0.30;;
9166;SDS011;4618;48.818;9.088;2024-03-23T07:48:27;0.77;;;0.33;;
9166;SDS011;4618;48.818;9.088;2024-03-23T07:53:30;0.40;;;0.40;;
9166;SDS011;4618;48.818;9.088;2024-03-23T07:56:09;0.30;;;0.30;;
9166;SDS011;4618;48.818;9.088;2024-03-23T07:58:36;0.40;;;0.40;;
9166;SDS011;4618;48.818;9.088;2024-03-23T08:01:05;0.50;;;0.50;;
9166;SDS011;4618;48.818;9.088;2024-03-23T08:03:36;0.33;;;0.30;;
9166;SDS011;4618;48.818;9.088;2024-03-23T08:06:13;0.60;;;0.50;;
9166;SDS011;4618;48.818;9.088;2024-03-23T08:08:40;0.50;;;0.50;;
9166;SDS011;4618;48.818;9.088;2024-03-23T08:11:06;0.43;;;0.40;;
9166;SDS011;4618;48.818;9.088;2024-03-23T08:13:34;0.30;;;0.30;;
9166;SDS011;4618;48.818;9.088;2024-03-23T08:16:01;0.40;;;0.40;;
9166;SDS011;4618;48.818;9.088;2024-03-23T08:18:28;0.47;;;0.47;;
9166;SDS011;4618;48.818;9.088;2024-03-23T08:23:27;0.40;;;0.40;;
9166;SDS011;4618;48.818;9.088;2024-03-23T08:25:57;0.40;;;0.40;;
9166;SDS011;4618;48.818;9.088;2024-03-23T08:28:24;2.93;;;0.50;;
9166;SDS011;4618;48.818;9.088;2024-03-23T08:30:50;0.60;;;0.53;;
9166;SDS011;4618;48.818;9.088;2024-03-23T08:33:16;0.50;;;0.50;;
9166;SDS011;4618;48.818;9.088;2024-03-23T08:35:42;0.60;;;0.60;;
9166;SDS011;4618;48.818;9.088;2024-03-23T08:38:17;0.73;;;0.73;;
9166;SDS011;4618;48.818;9.088;2024-03-23T08:40:44;0.60;;;0.60;;
9166;SDS011;4618;48.818;9.088;2024-03-23T08:43:09;0.57;;;0.57;;
9166;SDS011;4618;48.818;9.088;2024-03-23T08:45:35;0.60;;;0.60;;
9166;SDS011;4618;48.818;9.088;2024-03-23T08:48:01;0.53;;;0.53;;
9166;SDS011;4618;48.818;9.088;2024-03-23T08:50:27;1.23;;;0.50;;
9166;SDS011;4618;48.818;9.088;2024-03-23T08:52:53;1.53;;;0.90;;
9166;SDS011;4618;48.818;9.088;2024-03-23T08:55:19;1.87;;;0.80;;
9166;SDS011;4618;48.818;9.088;2024-03-23T08:57:44;1.10;;;0.83;;
9166;SDS011;4618;48.818;9.088;2024-03-23T09:00:10;2.43;;;1.17;;
9166;SDS011;4618;48.818;9.088;2024-03-23T09:02:46;1.97;;;1.20;;
9166;SDS011;4618;48.818;9.088;2024-03-23T09:05:33;2.43;;;1.50;;
9166;SDS011;4618;48.818;9.088;2024-03-23T09:08:04;1.57;;;1.20;;
9166;SDS011;4618;48.818;9.088;2024-03-23T09:10:31;2.00;;;1.43;;
9166;SDS011;4618;48.818;9.088;2024-03-23T09:13:00;3.17;;;1.47;;
9166;SDS011;4618;48.818;9.088;2024-03-23T09:15:26;4.43;;;1.60;;
9166;SDS011;4618;48.818;9.088;2024-03-23T09:18:05;2.77;;;1.57;;
9166;SDS011;4618;48.818;9.088;2024-03-23T09:20:33;3.13;;;1.57;;
9166;SDS011;4618;48.818;9.088;2024-03-23T09:22:59;3.73;;;1.97;;
9166;SDS011;4618;48.818;9.088;2024-03-23T09:25:24;4.40;;;1.70;;
9166;SDS011;4618;48.818;9.088;2024-03-23T09:27:50;5.87;;;2.47;;
9166;SDS011;4618;48.818;9.088;2024-03-23T09:30:17;4.93;;;2.37;;
9166;SDS011;4618;48.818;9.088;2024-03-23T09:32:43;5.60;;;2.70;;
9166;SDS011;4618;48.818;9.088;2024-03-23T09:35:10;3.13;;;2.20;;
9166;SDS011;4618;48.818;9.088;2024-03-23T09:37:37;4.47;;;1.83;;
9166;SDS011;4618;48.818;9.088;2024-03-23T09:40:05;3.93;;;2.13;;
9166;SDS011;4618;48.818;9.088;2024-03-23T09:42:34;5.20;;;2.00;;
9166;SDS011;4618;48.818;9.088;2024-03-23T09:45:00;3.43;;;2.07;;
9166;SDS011;4618;48.818;9.088;2024-03-23T09:47:27;5.80;;;2.57;;
9166;SDS011;4618;48.818;9.088;2024-03-23T09:49:56;4.73;;;1.93;;
9166;SDS011;4618;48.818;9.088;2024-03-23T09:52:22;7.30;;;2.70;;
9166;SDS011;4618;48.818;9.088;2024-03-23T09:54:48;4.53;;;2.07;;
9166;SDS011;4618;48.818;9.088;2024-03-23T09:57:14;5.00;;;2.37;;
9166;SDS011;4618;48.818;9.088;2024-03-23T09:59:40;6.00;;;2.40;;
9166;SDS011;4618;48.818;9.088;2024-03-23T10:02:06;7.27;;;2.83;;
9166;SDS011;4618;48.818;9.088;2024-03-23T10:07:12;4.93;;;2.90;;
9166;SDS011;4618;48.818;9.088;2024-03-23T10:09:39;3.97;;;2.20;;
9166;SDS011;4618;48.818;9.088;2024-03-23T10:12:12;4.43;;;2.13;;
9166;SDS011;4618;48.818;9.088;2024-03-23T10:14:39;5.80;;;3.30;;
9166;SDS011;4618;48.818;9.088;2024-03-23T10:17:12;7.13;;;2.50;;
9166;SDS011;4618;48.818;9.088;2024-03-23T10:19:45;5.57;;;2.70;;
9166;SDS011;4618;48.818;9.088;2024-03-23T10:22:17;6.90;;;2.80;;
9166;SDS011;4618;48.818;9.088;2024-03-23T10:24:43;5.43;;;2.33;;
9166;SDS011;4618;48.818;9.088;2024-03-23T10:27:09;8.73;;;2.93;;
9166;SDS011;4618;48.818;9.088;2024-03-23T10:29:35;4.30;;;2.43;;
9166;SDS011;4618;48.818;9.088;2024-03-23T10:32:08;5.23;;;2.30;;
9166;SDS011;4618;48.818;9.088;2024-03-23T10:34:35;5.50;;;2.67;;
9166;SDS011;4618;48.818;9.088;2024-03-23T10:37:01;7.23;;;2.90;;
9166;SDS011;4618;48.818;9.088;2024-03-23T10:39:29;4.37;;;2.73;;
9166;SDS011;4618;48.818;9.088;2024-03-23T10:41:56;5.17;;;2.60;;
9166;SDS011;4618;48.818;9.088;2024-03-23T10:44:23;6.80;;;2.90;;
9166;SDS011;4618;48.818;9.088;2024-03-23T10:46:52;5.43;;;2.43;;
9166;SDS011;4618;48.818;9.088;2024-03-23T10:49:25;7.30;;;3.10;;
9166;SDS011;4618;48.818;9.088;2024-03-23T10:51:52;6.17;;;3.17;;
9166;SDS011;4618;48.818;9.088;2024-03-23T10:54:19;4.27;;;2.90;;
9166;SDS011;4618;48.818;9.088;2024-03-23T10:56:45;5.57;;;3.13;;
9166;SDS011;4618;48.818;9.088;2024-03-23T10:59:13;4.73;;;2.17;;
9166;SDS011;4618;48.818;9.088;2024-03-23T11:01:53;3.70;;;2.27;;
9166;SDS011;4618;48.818;9.088;2024-03-23T11:04:31;7.07;;;2.90;;
9166;SDS011;4618;48.818;9.088;2024-03-23T11:06:59;3.63;;;2.57;;
9166;SDS011;4618;48.818;9.088;2024-03-23T11:09:48;2.43;;;2.23;;
9166;SDS011;4618;48.818;9.088;2024-03-23T11:14:48;3.77;;;2.53;;
9166;SDS011;4618;48.818;9.088;2024-03-23T11:17:21;4.33;;;2.50;;
9166;SDS011;4618;48.818;9.088;2024-03-23T11:27:39;2.60;;;2.07;;
9166;SDS011;4618;48.818;9.088;2024-03-23T11:30:12;4.23;;;2.30;;
9166;SDS011;4618;48.818;9.088;2024-03-23T11:32:42;4.13;;;2.17;;
9166;SDS011;4618;48.818;9.088;2024-03-23T11:35:09;3.20;;;2.10;;
9166;SDS011;4618;48.818;9.088;2024-03-23T11:37:36;3.33;;;1.73;;
9166;SDS011;4618;48.818;9.088;2024-03-23T11:40:39;3.07;;;1.70;;
9166;SDS011;4618;48.818;9.088;2024-03-23T11:43:09;1.70;;;1.57;;
9166;SDS011;4618;48.818;9.088;2024-03-23T11:45:38;2.27;;;1.50;;
9166;SDS011;4618;48.818;9.088;2024-03-23T11:48:10;1.80;;;1.40;;
9166;SDS011;4618;48.818;9.088;2024-03-23T11:50:40;2.70;;;1.57;;
9166;SDS011;4618;48.818;9.088;2024-03-23T11:53:18;3.63;;;1.40;;
9166;SDS011;4618;48.818;9.088;2024-03-23T11:55:53;4.17;;;1.30;;
9166;SDS011;4618;48.818;9.088;2024-03-23T11:58:21;3.33;;;1.57;;
9166;SDS011;4618;48.818;9.088;2024-03-23T12:03:24;3.30;;;1.10;;
9166;SDS011;4618;48.818;9.088;2024-03-23T12:05:52;2.53;;;1.17;;
9166;SDS011;4618;48.818;9.088;2024-03-23T12:08:31;3.47;;;1.30;;
9166;SDS011;4618;48.818;9.088;2024-03-23T12:11:10;4.53;;;1.40;;
9166;SDS011;4618;48.818;9.088;2024-03-23T12:13:38;5.13;;;1.40;;
9166;SDS011;4618;48.818;9.088;2024-03-23T12:16:19;4.03;;;1.30;;
9166;SDS011;4618;48.818;9.088;2024-03-23T12:18:47;6.70;;;1.23;;
9166;SDS011;4618;48.818;9.088;2024-03-23T12:21:14;5.57;;;1.70;;
9166;SDS011;4618;48.818;9.088;2024-03-23T12:23:40;5.80;;;1.53;;
9166;SDS011;4618;48.818;9.088;2024-03-23T12:26:10;2.87;;;1.20;;
9166;SDS011;4618;48.818;9.088;2024-03-23T12:28:37;5.67;;;1.80;;
9166;SDS011;4618;48.818;9.088;2024-03-23T12:31:03;6.87;;;2.00;;
9166;SDS011;4618;48.818;9.088;2024-03-23T12:33:32;4.20;;;1.70;;
9166;SDS011;4618;48.818;9.088;2024-03-23T12:36:01;6.57;;;1.70;;
9166;SDS011;4618;48.818;9.088;2024-03-23T12:38:27;4.80;;;1.83;;
9166;SDS011;4618;48.818;9.088;2024-03-23T12:40:53;6.87;;;1.70;;
9166;SDS011;4618;48.818;9.088;2024-03-23T12:43:19;4.77;;;1.63;;
9166;SDS011;4618;48.818;9.088;2024-03-23T12:48:14;3.63;;;1.60;;
9166;SDS011;4618;48.818;9.088;2024-03-23T12:50:40;4.43;;;1.97;;
9166;SDS011;4618;48.818;9.088;2024-03-23T12:53:06;4.60;;;2.20;;
9166;SDS011;4618;48.818;9.088;2024-03-23T12:55:34;5.37;;;1.87;;
9166;SDS011;4618;48.818;9.088;2024-03-23T12:58:00;4.80;;;1.70;;
9166;SDS011;4618;48.818;9.088;2024-03-23T13:00:27;7.03;;;2.13;;
9166;SDS011;4618;48.818;9.088;2024-03-23T13:02:53;4.20;;;1.90;;
9166;SDS011;4618;48.818;9.088;2024-03-23T13:05:18;5.33;;;1.70;;
9166;SDS011;4618;48.818;9.088;2024-03-23T13:07:44;5.10;;;1.77;;
9166;SDS011;4618;48.818;9.088;2024-03-23T13:10:10;5.07;;;1.93;;
9166;SDS011;4618;48.818;9.088;2024-03-23T13:12:41;3.77;;;1.60;;
9166;SDS011;4618;48.818;9.088;2024-03-23T13:15:08;5.07;;;1.90;;
9166;SDS011;4618;48.818;9.088;2024-03-23T13:17:44;5.33;;;1.87;;
9166;SDS011;4618;48.818;9.088;2024-03-23T13:20:10;3.37;;;1.37;;
9166;SDS011;4618;48.818;9.088;2024-03-23T13:22:42;3.53;;;1.40;;
9166;SDS011;4618;48.818;9.088;2024-03-23T13:25:08;6.37;;;1.50;;
9166;SDS011;4618;48.818;9.088;2024-03-23T13:27:34;5.70;;;1.40;;
9166;SDS011;4618;48.818;9.088;2024-03-23T13:30:00;6.07;;;1.50;;
9166;SDS011;4618;48.818;9.088;2024-03-23T13:32:26;6.40;;;1.27;;
9166;SDS011;4618;48.818;9.088;2024-03-23T13:34:51;3.07;;;1.30;;
9166;SDS011;4618;48.818;9.088;2024-03-23T13:37:17;4.60;;;1.47;;
9166;SDS011;4618;48.818;9.088;2024-03-23T13:40:01;5.20;;;1.47;;
9166;SDS011;4618;48.818;9.088;2024-03-23T13:42:30;4.27;;;1.60;;
9166;SDS011;4618;48.818;9.088;2024-03-23T13:44:56;4.53;;;1.30;;
9166;SDS011;4618;48.818;9.088;2024-03-23T13:47:22;3.40;;;1.40;;
9166;SDS011;4618;48.818;9.088;2024-03-23T13:49:50;4.00;;;1.67;;
9166;SDS011;4618;48.818;9.088;2024-03-23T13:52:27;6.47;;;1.63;;
9166;SDS011;4618;48.818;9.088;2024-03-23T13:54:55;4.53;;;1.30;;
9166;SDS011;4618;48.818;9.088;2024-03-23T13:57:21;5.57;;;1.20;;
9166;SDS011;4618;48.818;9.088;2024-03-23T13:59:48;4.40;;;1.40;;
9166;SDS011;4618;48.818;9.088;2024-03-23T14:02:14;3.63;;;1.00;;
9166;SDS011;4618;48.818;9.088;2024-03-23T14:04:39;1.47;;;1.13;;
9166;SDS011;4618;48.818;9.088;2024-03-23T14:07:06;6.97;;;1.37;;
9166;SDS011;4618;48.818;9.088;2024-03-23T14:12:45;5.23;;;1.23;;
9166;SDS011;4618;48.818;9.088;2024-03-23T15:22:27;2.70;;;0.50;;
9166;SDS011;4618;48.818;9.088;2024-03-23T15:24:59;2.50;;;0.60;;
9166;SDS011;4618;48.818;9.088;2024-03-23T15:27:27;1.43;;;0.60;;
9166;SDS011;4618;48.818;9.088;2024-03-23T15:30:02;2.80;;;0.70;;
9166;SDS011;4618;48.818;9.088;2024-03-23T15:32:35;1.57;;;0.73;;
9166;SDS011;4618;48.818;9.088;2024-03-23T15:35:16;0.83;;;0.43;;
9166;SDS011;4618;48.818;9.088;2024-03-23T15:41:53;2.53;;;0.60;;
9166;SDS011;4618;48.818;9.088;2024-03-23T15:49:57;2.03;;;0.70;;
9166;SDS011;4618;48.818;9.088;2024-03-23T15:52:37;1.20;;;0.60;;
9166;SDS011;4618;48.818;9.088;2024-03-23T15:55:05;1.53;;;0.50;;
9166;SDS011;4618;48.818;9.088;2024-03-23T15:57:34;1.97;;;0.70;;
9166;SDS011;4618;48.818;9.088;2024-03-23T16:00:13;2.90;;;0.70;;
9166;SDS011;4618;48.818;9.088;2024-03-23T16:09:17;2.23;;;0.70;;
9166;SDS011;4618;48.818;9.088;2024-03-23T16:11:47;2.90;;;0.83;;
9166;SDS011;4618;48.818;9.088;2024-03-23T16:14:28;2.97;;;0.50;;
9166;SDS011;4618;48.818;9.088;2024-03-23T16:17:02;1.53;;;0.60;;
9166;SDS011;4618;48.818;9.088;2024-03-23T16:48:50;1.77;;;0.40;;
9166;SDS011;4618;48.818;9.088;2024-03-23T16:51:16;1.13;;;0.50;;
9166;SDS011;4618;48.818;9.088;2024-03-23T16:53:46;1.03;;;0.30;;
9166;SDS011;4618;48.818;9.088;2024-03-23T16:56:16;2.53;;;0.70;;
9166;SDS011;4618;48.818;9.088;2024-03-23T16:58:44;1.10;;;0.70;;
9166;SDS011;4618;48.818;9.088;2024-03-23T17:01:12;2.70;;;0.50;;
9166;SDS011;4618;48.818;9.088;2024-03-23T17:03:51;2.20;;;0.53;;
9166;SDS011;4618;48.818;9.088;2024-03-23T17:06:26;0.43;;;0.40;;
9166;SDS011;4618;48.818;9.088;2024-03-23T17:08:53;0.80;;;0.50;;
9166;SDS011;4618;48.818;9.088;2024-03-23T17:11:19;1.00;;;0.50;;
9166;SDS011;4618;48.818;9.088;2024-03-23T17:13:53;1.23;;;0.40;;
9166;SDS011;4618;48.818;9.088;2024-03-23T17:16:20;2.53;;;0.70;;
9166;SDS011;4618;48.818;9.088;2024-03-23T17:18:47;2.10;;;0.50;;
9166;SDS011;4618;48.818;9.088;2024-03-23T17:21:18;2.63;;;0.70;;
9166;SDS011;4618;48.818;9.088;2024-03-23T17:23:47;2.00;;;0.70;;
9166;SDS011;4618;48.818;9.088;2024-03-23T17:26:16;3.63;;;0.70;;
9166;SDS011;4618;48.818;9.088;2024-03-23T17:28:53;2.47;;;0.70;;
9166;SDS011;4618;48.818;9.088;2024-03-23T17:31:30;2.37;;;0.70;;
9166;SDS011;4618;48.818;9.088;2024-03-23T17:33:57;1.50;;;0.63;;
9166;SDS011;4618;48.818;9.088;2024-03-23T17:36:23;1.63;;;0.60;;
9166;SDS011;4618;48.818;9.088;2024-03-23T17:38:55;3.07;;;0.80;;
9166;SDS011;4618;48.818;9.088;2024-03-23T17:41:25;2.93;;;0.77;;
9166;SDS011;4618;48.818;9.088;2024-03-23T18:40:55;1.67;;;0.83;;
9166;SDS011;4618;48.818;9.088;2024-03-23T18:43:30;1.80;;;0.80;;
9166;SDS011;4618;48.818;9.088;2024-03-23T18:45:57;2.80;;;1.70;;
9166;SDS011;4618;48.818;9.088;2024-03-23T18:48:23;6.13;;;2.87;;
9166;SDS011;4618;48.818;9.088;2024-03-23T18:50:52;5.47;;;2.70;;
9166;SDS011;4618;48.818;9.088;2024-03-23T18:53:18;3.20;;;2.00;;
9166;SDS011;4618;48.818;9.088;2024-03-23T18:55:52;3.27;;;1.63;;
9166;SDS011;4618;48.818;9.088;2024-03-23T18:58:22;2.57;;;1.67;;
9166;SDS011;4618;48.818;9.088;2024-03-23T19:00:54;2.53;;;1.33;;
9166;SDS011;4618;48.818;9.088;2024-03-23T19:03:25;2.60;;;1.30;;
9166;SDS011;4618;48.818;9.088;2024-03-23T19:05:53;1.40;;;1.30;;
9166;SDS011;4618;48.818;9.088;2024-03-23T19:08:19;3.73;;;1.37;;
9166;SDS011;4618;48.818;9.088;2024-03-23T19:10:52;2.80;;;1.80;;
9166;SDS011;4618;48.818;9.088;2024-03-23T19:13:18;3.83;;;2.20;;
9166;SDS011;4618;48.818;9.088;2024-03-23T19:15:44;2.20;;;1.70;;
9166;SDS011;4618;48.818;9.088;2024-03-23T19:18:11;3.47;;;2.40;;
9166;SDS011;4618;48.818;9.088;2024-03-23T19:20:37;4.87;;;4.00;;
9166;SDS011;4618;48.818;9.088;2024-03-23T19:23:03;4.17;;;3.50;;
9166;SDS011;4618;48.818;9.088;2024-03-23T19:25:29;3.40;;;2.10;;
9166;SDS011;4618;48.818;9.088;2024-03-23T19:27:59;5.37;;;3.70;;